createdAt,value
2022-10-18T00:02:03.890Z,101999.66
2022-10-18T00:04:06.996Z,101991.69
2022-10-18T00:06:10.751Z,101995.16
2022-10-18T00:08:13.791Z,102000.38
2022-10-18T00:10:16.804Z,101997.72
2022-10-18T00:12:19.805Z,102002.16
2022-10-18T00:14:23.272Z,102003.91
2022-10-18T00:16:26.317Z,102000.41
2022-10-18T00:18:31.191Z,102001.28
2022-10-18T00:20:34.155Z,101997.78
2022-10-18T00:22:38.191Z,101998.66
2022-10-18T00:24:41.274Z,102000.44
2022-10-18T00:26:44.551Z,101998.66
2022-10-18T00:28:48.221Z,101999.47
2022-10-18T00:30:51.200Z,101995.88
2022-10-18T00:32:54.234Z,102001.13
2022-10-18T00:34:59.175Z,101994.13
2022-10-18T00:37:02.245Z,101990.66
2022-10-18T00:39:05.900Z,101994.13
2022-10-18T00:41:09.906Z,101991.41
2022-10-18T00:43:15.791Z,101990.31
2022-10-18T00:45:21.192Z,101983.25
2022-10-18T00:47:24.573Z,101983.34
2022-10-18T00:49:31.212Z,101978.13
2022-10-18T00:51:39.341Z,101976.34
2022-10-18T00:53:42.437Z,101982.25
2022-10-18T00:55:45.556Z,101986.59
2022-10-18T00:57:49.397Z,101977.91
2022-10-18T00:59:52.799Z,101975.16
2022-10-18T01:01:55.986Z,101974.06
2022-10-18T01:03:59.040Z,101977.78
2022-10-18T01:06:02.037Z,101969.06
2022-10-18T01:08:18.385Z,101968.09
2022-10-18T01:10:27.835Z,101967.19
2022-10-18T01:12:39.606Z,101965.53
2022-10-18T01:14:46.203Z,101954.06
2022-10-18T01:16:53.398Z,101964.44
2022-10-18T01:18:59.496Z,101960.91
2022-10-18T01:21:16.441Z,101970.44
2022-10-18T01:23:25.185Z,101962.63
2022-10-18T01:25:37.649Z,101954.03
2022-10-18T01:27:45.507Z,101962.06
2022-10-18T01:29:55.701Z,101958.72
2022-10-18T01:32:01.153Z,101959.72
2022-10-18T01:34:06.142Z,101958.91
2022-10-18T01:36:13.354Z,101957.22
2022-10-18T01:38:18.106Z,101962.44
2022-10-18T01:40:23.301Z,101967.66
2022-10-18T01:42:26.711Z,101963.97
2022-10-18T01:44:32.711Z,101963.81
2022-10-18T01:46:36.344Z,101962.88
2022-10-18T01:48:41.054Z,101959.47
2022-10-18T01:50:44.129Z,101960.44
2022-10-18T01:52:50.330Z,101962.25
2022-10-18T01:54:55.032Z,101961.53
2022-10-18T01:56:59.756Z,101963.34
2022-10-18T01:59:17.598Z,101972.16
2022-10-18T02:01:24.542Z,101971.34
2022-10-18T02:03:29.889Z,101964.28
2022-10-18T02:05:38.609Z,101967.59
2022-10-18T02:07:48.977Z,101962.38
2022-10-18T02:10:02.947Z,101959.84
2022-10-18T02:12:08.655Z,101956.34
2022-10-18T02:14:13.402Z,101958.00
2022-10-18T02:16:20.038Z,101957.88
2022-10-18T02:18:26.539Z,101959.63
2022-10-18T02:20:32.270Z,101949.09
2022-10-18T02:22:37.862Z,101955.31
2022-10-18T02:24:43.214Z,101948.34
2022-10-18T02:26:46.220Z,101941.34
2022-10-18T02:28:49.298Z,101944.06
2022-10-18T02:30:54.435Z,101945.00
2022-10-18T02:32:59.787Z,101951.13
2022-10-18T02:35:05.317Z,101953.44
2022-10-18T02:37:09.499Z,101946.31
2022-10-18T02:39:15.335Z,101954.34
2022-10-18T02:41:23.100Z,101950.88
2022-10-18T02:43:26.119Z,101957.09
2022-10-18T02:45:29.237Z,101958.91
2022-10-18T02:47:32.814Z,101954.59
2022-10-18T02:49:36.065Z,101960.81
2022-10-18T02:51:39.101Z,101956.38
2022-10-18T02:53:42.176Z,101959.03
2022-10-18T02:55:46.498Z,101955.50
2022-10-18T02:57:49.712Z,101962.50
2022-10-18T02:59:52.766Z,101967.78
2022-10-18T03:01:55.828Z,101955.53
2022-10-18T03:03:59.112Z,101955.53
2022-10-18T03:06:02.222Z,101969.59
2022-10-18T03:08:05.525Z,101971.25
2022-10-18T03:10:08.962Z,101963.44
2022-10-18T03:12:13.301Z,101970.41
2022-10-18T03:14:16.415Z,101963.28
2022-10-18T03:16:19.413Z,101968.53
2022-10-18T03:18:22.433Z,101973.03
2022-10-18T03:20:25.457Z,101979.16
2022-10-18T03:24:37.066Z,101976.59
2022-10-18T03:26:40.087Z,101974.84
2022-10-18T03:28:44.510Z,101969.56
2022-10-18T03:30:47.564Z,101973.13
2022-10-18T03:32:50.652Z,101977.56
2022-10-18T03:34:53.701Z,101969.72
2022-10-18T03:37:00.882Z,101967.94
2022-10-18T03:39:06.435Z,101974.19
2022-10-18T03:41:09.657Z,101969.81
2022-10-18T03:43:12.668Z,101966.34
2022-10-18T03:45:17.160Z,101968.06
2022-10-18T03:47:20.318Z,101965.44
2022-10-18T03:49:23.397Z,101962.81
2022-10-18T03:51:26.399Z,101962.88
2022-10-18T03:53:29.420Z,101962.81
2022-10-18T03:55:32.467Z,101958.44
2022-10-18T03:57:35.823Z,101951.31
2022-10-18T03:59:38.877Z,101954.84
2022-10-18T04:01:43.235Z,101956.59
2022-10-18T04:03:46.367Z,101960.06
2022-10-18T04:05:50.060Z,101950.34
2022-10-18T04:07:53.206Z,101948.53
2022-10-18T04:09:56.216Z,101962.69
2022-10-18T04:11:59.229Z,101955.69
2022-10-18T04:14:02.270Z,101957.41
2022-10-18T04:16:05.634Z,101961.59
2022-10-18T04:18:10.046Z,101969.31
2022-10-18T04:20:13.974Z,101962.94
2022-10-18T04:22:17.015Z,101960.06
2022-10-18T04:24:20.252Z,101961.03
2022-10-18T04:26:23.224Z,101961.16
2022-10-18T04:28:26.307Z,101954.16
2022-10-18T04:30:29.313Z,101946.38
2022-10-18T04:32:32.452Z,101952.59
2022-10-18T04:34:36.935Z,101947.25
2022-10-18T04:36:39.938Z,101957.03
2022-10-18T04:38:43.012Z,101957.09
2022-10-18T04:40:46.646Z,101961.53
2022-10-18T04:42:49.720Z,101960.69
2022-10-18T04:44:52.848Z,101964.25
2022-10-18T04:46:55.876Z,101961.66
2022-10-18T04:49:01.175Z,101964.31
2022-10-18T04:51:05.756Z,101970.53
2022-10-18T04:53:08.777Z,101977.56
2022-10-18T04:55:11.791Z,101971.50
2022-10-18T04:57:14.829Z,101975.03
2022-10-18T04:59:17.843Z,101972.41
2022-10-18T05:01:20.881Z,101976.81
2022-10-18T05:03:23.901Z,101976.81
2022-10-18T05:05:43.284Z,101976.72
2022-10-18T05:07:51.326Z,101981.13
2022-10-18T05:09:54.294Z,101981.06
2022-10-18T05:11:57.353Z,101980.13
2022-10-18T05:14:00.445Z,101988.03
2022-10-18T05:16:03.450Z,101995.03
2022-10-18T05:18:06.481Z,101993.16
2022-10-18T05:20:10.109Z,101991.47
2022-10-18T05:22:13.150Z,101982.63
2022-10-18T05:24:17.539Z,101982.69
2022-10-18T05:26:20.522Z,101980.13
2022-10-18T05:28:41.045Z,101990.72
2022-10-18T05:30:44.500Z,101985.41
2022-10-18T05:32:47.496Z,101991.56
2022-10-18T05:34:50.489Z,101986.28
2022-10-18T05:36:53.495Z,101988.03
2022-10-18T05:38:58.661Z,101992.19
2022-10-18T05:41:06.956Z,101996.50
2022-10-18T05:43:10.017Z,101990.47
2022-10-18T05:45:13.077Z,101987.88
2022-10-18T05:47:17.785Z,101992.34
2022-10-18T05:49:20.948Z,101993.31
2022-10-18T05:51:24.317Z,101996.78
2022-10-18T05:53:42.936Z,101995.94
2022-10-18T05:55:45.979Z,102002.09
2022-10-18T05:57:51.804Z,102004.75
2022-10-18T05:59:54.880Z,102001.28
2022-10-18T06:01:57.889Z,102004.88
2022-10-18T06:04:00.941Z,102004.75
2022-10-18T06:06:05.143Z,102005.50
2022-10-18T06:08:10.302Z,102007.16
2022-10-18T06:10:13.498Z,102003.59
2022-10-18T06:12:16.610Z,102005.25
2022-10-18T06:14:21.015Z,102002.56
2022-10-18T06:16:27.363Z,101997.41
2022-10-18T06:18:32.864Z,102007.06
2022-10-18T06:20:35.940Z,102007.88
2022-10-18T06:22:39.044Z,102004.22
2022-10-18T06:24:42.057Z,102002.34
2022-10-18T06:26:45.207Z,102001.38
2022-10-18T06:28:48.505Z,101993.25
2022-10-18T06:30:53.075Z,102002.09
2022-10-18T06:32:59.910Z,102009.28
2022-10-18T06:35:03.248Z,102010.22
2022-10-18T06:37:06.352Z,102013.03
2022-10-18T06:39:09.333Z,102015.66
2022-10-18T06:41:14.516Z,102020.91
2022-10-18T06:43:21.063Z,102024.47
2022-10-18T06:45:24.455Z,102024.53
2022-10-18T06:47:28.929Z,102029.88
2022-10-18T06:49:31.969Z,102027.34
2022-10-18T06:51:35.096Z,102031.81
2022-10-18T06:53:44.214Z,102029.25
2022-10-18T06:56:01.403Z,102024.06
2022-10-18T06:58:04.762Z,102031.03
2022-10-18T07:00:08.405Z,102043.38
2022-10-18T07:02:15.544Z,102039.00
2022-10-18T07:04:19.898Z,102040.69
2022-10-18T07:06:24.038Z,102041.31
2022-10-18T07:08:30.853Z,102040.13
2022-10-18T07:10:35.031Z,102043.41
2022-10-18T07:12:38.098Z,102043.31
2022-10-18T07:14:41.109Z,102045.13
2022-10-18T07:16:44.137Z,102054.56
2022-10-18T07:18:48.253Z,102047.47
2022-10-18T07:20:52.631Z,102060.59
2022-10-18T07:22:56.982Z,102055.44
2022-10-18T07:25:00.020Z,102051.06
2022-10-18T07:27:03.276Z,102066.19
2022-10-18T07:29:08.545Z,102067.16
2022-10-18T07:31:12.096Z,102065.59
2022-10-18T07:33:15.174Z,102076.34
2022-10-18T07:35:18.301Z,102074.66
2022-10-18T07:37:26.593Z,102083.50
2022-10-18T07:39:32.384Z,102079.25
2022-10-18T07:41:35.579Z,102094.28
2022-10-18T07:43:41.901Z,102087.16
2022-10-18T07:45:52.236Z,102084.59
2022-10-18T07:47:55.815Z,102092.63
2022-10-18T07:50:00.442Z,102095.28
2022-10-18T07:52:03.468Z,102096.22
2022-10-18T07:54:07.827Z,102098.09
2022-10-18T07:56:15.867Z,102105.13
2022-10-18T07:58:18.894Z,102106.00
2022-10-18T08:00:21.932Z,102113.91
2022-10-18T08:02:25.203Z,102108.72
2022-10-18T08:04:28.220Z,102112.31
2022-10-18T08:06:31.382Z,102108.81
2022-10-18T08:08:34.461Z,102112.19
2022-10-18T08:10:38.806Z,102116.44
2022-10-18T08:12:42.355Z,102112.00
2022-10-18T08:14:45.373Z,102120.88
2022-10-18T08:16:48.377Z,102106.72
2022-10-18T08:18:51.424Z,102107.84
2022-10-18T08:20:54.535Z,102111.28
2022-10-18T08:23:00.150Z,102114.91
2022-10-18T08:25:03.785Z,102121.09
2022-10-18T08:27:08.770Z,102112.34
2022-10-18T08:29:32.063Z,102122.88
2022-10-18T08:31:35.296Z,102126.34
2022-10-18T08:33:39.601Z,102127.25
2022-10-18T08:35:42.606Z,102136.84
2022-10-18T08:37:46.247Z,102133.28
2022-10-18T08:39:49.386Z,102140.28
2022-10-18T08:42:02.507Z,102149.09
2022-10-18T08:44:11.734Z,102140.28
2022-10-18T08:46:15.139Z,102144.53
2022-10-18T08:48:21.759Z,102156.88
2022-10-18T08:50:26.720Z,102149.72
2022-10-18T08:52:33.368Z,102153.19
2022-10-18T08:54:39.477Z,102153.25
2022-10-18T08:56:43.977Z,102163.81
2022-10-18T08:58:47.018Z,102158.53
2022-10-18T09:00:57.662Z,102162.91
2022-10-18T09:03:08.269Z,102169.06
2022-10-18T09:05:20.601Z,102168.09
2022-10-18T09:07:29.093Z,102174.22
2022-10-18T09:09:36.537Z,102168.09
2022-10-18T09:11:45.667Z,102171.53
2022-10-18T09:14:01.195Z,102171.59
2022-10-18T09:16:06.891Z,102163.59
2022-10-18T09:18:14.854Z,102168.09
2022-10-18T09:20:22.715Z,102168.94
2022-10-18T09:22:31.291Z,102165.53
2022-10-18T09:24:39.916Z,102169.09
2022-10-18T09:26:45.095Z,102169.09
2022-10-18T09:28:55.551Z,102176.16
2022-10-18T09:31:02.148Z,102176.25
2022-10-18T09:33:14.195Z,102177.28
2022-10-18T09:35:19.362Z,102174.69
2022-10-18T09:37:23.933Z,102184.38
2022-10-18T09:39:30.068Z,102180.88
2022-10-18T09:41:36.102Z,102178.31
2022-10-18T09:43:43.512Z,102186.16
2022-10-18T09:45:48.106Z,102178.31
2022-10-18T09:47:57.421Z,102183.66
2022-10-18T09:50:03.346Z,102178.53
2022-10-18T09:52:09.112Z,102188.38
2022-10-18T09:54:18.464Z,102182.91
2022-10-18T09:56:25.038Z,102185.53
2022-10-18T09:58:29.411Z,102185.50
2022-10-18T10:00:34.711Z,102185.50
2022-10-18T10:02:37.951Z,102190.06
2022-10-18T10:04:41.032Z,102189.44
2022-10-18T10:06:52.035Z,102195.56
2022-10-18T10:08:56.410Z,102193.00
2022-10-18T10:10:59.497Z,102190.44
2022-10-18T10:13:06.821Z,102146.00
2022-10-18T10:15:13.430Z,102186.50
2022-10-18T10:17:23.761Z,102199.91
2022-10-18T10:19:31.994Z,102206.91
2022-10-18T10:21:35.091Z,102200.66
2022-10-18T10:23:45.514Z,102203.97
2022-10-18T10:25:51.819Z,102203.97
2022-10-18T10:27:54.953Z,102203.13
2022-10-18T10:30:01.501Z,102199.75
2022-10-18T10:32:13.405Z,102211.22
2022-10-18T10:34:21.019Z,102209.38
2022-10-18T10:36:24.230Z,102208.47
2022-10-18T10:38:28.116Z,102208.47
2022-10-18T10:40:32.994Z,102215.47
2022-10-18T10:42:38.583Z,102220.88
2022-10-18T10:44:54.780Z,102222.72
2022-10-18T10:46:58.308Z,102213.94
2022-10-18T10:49:35.041Z,102212.31
2022-10-18T10:51:30.499Z,102208.84
2022-10-18T10:53:36.435Z,102213.31
2022-10-18T10:55:40.801Z,102212.56
2022-10-18T10:57:45.048Z,102216.25
2022-10-18T10:59:49.131Z,102205.09
2022-10-18T11:02:12.133Z,102207.97
2022-10-18T11:04:25.706Z,102208.34
2022-10-18T11:06:43.576Z,102217.06
2022-10-18T11:08:47.336Z,102209.78
2022-10-18T11:10:55.243Z,102204.63
2022-10-18T11:13:04.356Z,102206.19
2022-10-18T11:15:13.081Z,102203.47
2022-10-18T11:17:22.032Z,102213.06
2022-10-18T11:19:30.837Z,102211.09
2022-10-18T11:21:34.189Z,102209.34
2022-10-18T11:23:38.300Z,102210.28
2022-10-18T11:25:49.925Z,102209.34
2022-10-18T11:27:58.555Z,102210.31
2022-10-18T11:30:15.378Z,102213.69
2022-10-18T11:32:22.310Z,102218.13
2022-10-18T11:34:39.530Z,102208.59
2022-10-18T11:36:54.759Z,102207.91
2022-10-18T11:39:10.795Z,102206.88
2022-10-18T11:41:23.506Z,102203.22
2022-10-18T11:44:00.612Z,102213.38
2022-10-18T11:46:01.807Z,102215.94
2022-10-18T11:48:10.457Z,102211.53
2022-10-18T11:50:26.078Z,102206.94
2022-10-18T11:52:34.554Z,102197.28
2022-10-18T11:54:46.393Z,102198.50
2022-10-18T11:56:53.193Z,102190.84
2022-10-18T11:59:04.190Z,102194.56
2022-10-18T12:01:12.813Z,102188.66
2022-10-18T12:03:29.059Z,102189.69
2022-10-18T12:05:32.978Z,102183.25
2022-10-18T12:07:38.991Z,102187.91
2022-10-18T12:11:55.491Z,102194.34
2022-10-18T12:14:01.487Z,102192.38
2022-10-18T12:16:06.005Z,102190.28
2022-10-18T12:18:12.405Z,102190.13
2022-10-18T12:20:18.219Z,102184.72
2022-10-18T12:22:22.847Z,102197.88
2022-10-18T12:24:28.552Z,102203.47
2022-10-18T12:26:32.359Z,102195.63
2022-10-18T12:28:40.239Z,102194.47
2022-10-18T12:30:48.083Z,102190.19
2022-10-18T12:33:03.562Z,102179.47
2022-10-18T12:35:15.873Z,102177.81
2022-10-18T12:37:36.775Z,102183.03
2022-10-18T12:39:50.442Z,102184.47
2022-10-18T12:42:04.922Z,102183.13
2022-10-18T12:44:08.902Z,102178.50
2022-10-18T12:46:13.910Z,102181.03
2022-10-18T12:48:28.611Z,102176.22
2022-10-18T12:50:34.822Z,102171.00
2022-10-18T12:52:37.924Z,102177.25
2022-10-18T12:54:41.004Z,102178.53
2022-10-18T12:56:44.569Z,102182.41
2022-10-18T12:58:47.616Z,102174.78
2022-10-18T13:01:04.273Z,102184.03
2022-10-18T13:03:37.921Z,102178.72
2022-10-18T13:05:56.573Z,102172.72
2022-10-18T13:08:21.852Z,102178.00
2022-10-18T13:10:34.946Z,102170.28
2022-10-18T13:12:58.829Z,102166.97
2022-10-18T13:15:24.182Z,102174.94
2022-10-18T13:17:32.673Z,102177.63
2022-10-18T13:19:47.194Z,102182.91
2022-10-18T13:21:56.079Z,102192.72
2022-10-18T13:24:07.011Z,102191.00
2022-10-18T13:26:15.925Z,102187.44
2022-10-18T13:28:25.722Z,102189.19
2022-10-18T13:30:33.748Z,102187.34
2022-10-18T13:32:39.794Z,102193.56
2022-10-18T13:34:44.712Z,102181.19
2022-10-18T13:36:56.269Z,102183.88
2022-10-18T13:39:02.101Z,102186.56
2022-10-18T13:41:06.764Z,102190.13
2022-10-18T13:43:24.611Z,102183.88
2022-10-18T13:45:55.515Z,102191.75
2022-10-18T13:47:58.934Z,102180.19
2022-10-18T13:52:40.324Z,102188.66
2022-10-18T13:54:54.535Z,102192.31
2022-10-18T13:57:12.674Z,102187.28
2022-10-18T13:59:33.447Z,102183.81
2022-10-18T14:01:42.457Z,102190.97
2022-10-18T14:03:59.433Z,102195.38
2022-10-18T14:06:05.947Z,102201.63
2022-10-18T14:08:14.551Z,102199.00
2022-10-18T14:10:26.792Z,102209.66
2022-10-18T14:12:41.828Z,102202.53
2022-10-18T14:14:47.064Z,102199.88
2022-10-18T14:16:55.792Z,102200.59
2022-10-18T14:19:03.679Z,102191.66
2022-10-18T14:21:14.001Z,102198.97
2022-10-18T14:23:21.294Z,102204.28
2022-10-18T14:25:27.863Z,102202.56
2022-10-18T14:27:32.489Z,102203.44
2022-10-18T14:29:35.850Z,102207.91
2022-10-18T14:31:38.853Z,102204.34
2022-10-18T14:33:43.150Z,102197.22
2022-10-18T14:35:58.974Z,102195.47
2022-10-18T14:38:02.516Z,102195.47
2022-10-18T14:40:07.432Z,102190.91
2022-10-18T14:42:19.984Z,102197.16
2022-10-18T14:44:26.186Z,102201.69
2022-10-18T14:46:31.171Z,102200.81
2022-10-18T14:48:34.932Z,102202.56
2022-10-18T14:50:38.087Z,102194.59
2022-10-18T14:52:41.164Z,102200.78
2022-10-18T14:54:44.335Z,102202.56
2022-10-18T14:56:49.066Z,102205.22
2022-10-18T14:58:53.244Z,102214.97
2022-10-18T15:00:56.275Z,102211.44
2022-10-18T15:02:59.593Z,102207.88
2022-10-18T15:05:06.732Z,102206.09
2022-10-18T15:07:15.622Z,102204.31
2022-10-18T15:09:23.063Z,102200.75
2022-10-18T15:11:28.433Z,102201.63
2022-10-18T15:13:33.628Z,102206.84
2022-10-18T15:15:36.679Z,102199.66
2022-10-18T15:17:41.242Z,102205.94
2022-10-18T15:19:54.667Z,102203.28
2022-10-18T15:22:30.860Z,102199.69
2022-10-18T15:24:27.610Z,102200.56
2022-10-18T15:26:31.414Z,102202.16
2022-10-18T15:28:37.753Z,102194.88
2022-10-18T15:30:42.883Z,102194.75
2022-10-18T15:32:49.862Z,102195.44
2022-10-18T15:34:52.963Z,102194.47
2022-10-18T15:36:57.001Z,102203.28
2022-10-18T15:39:07.454Z,102201.41
2022-10-18T15:41:28.993Z,102194.31
2022-10-18T15:43:37.835Z,102194.97
2022-10-18T15:48:00.115Z,102191.78
2022-10-18T15:50:03.477Z,102196.97
2022-10-18T15:52:25.204Z,102192.47
2022-10-18T15:54:30.863Z,102193.13
2022-10-18T15:56:34.682Z,102200.13
2022-10-18T15:58:41.646Z,102190.44
2022-10-18T16:00:46.770Z,102197.94
2022-10-18T16:02:49.810Z,102199.53
2022-10-18T16:04:52.937Z,102196.03
2022-10-18T16:06:56.447Z,102196.91
2022-10-18T16:08:59.490Z,102186.19
2022-10-18T16:11:02.613Z,102199.53
2022-10-18T16:13:05.608Z,102203.75
2022-10-18T16:15:10.764Z,102204.59
2022-10-18T16:17:16.845Z,102200.03
2022-10-18T16:19:21.268Z,102201.75
2022-10-18T16:21:25.624Z,102206.09
2022-10-18T16:23:29.572Z,102201.59
2022-10-18T16:25:35.328Z,102201.53
2022-10-18T16:27:38.432Z,102197.09
2022-10-18T16:29:41.621Z,102196.22
2022-10-18T16:31:46.624Z,102204.97
2022-10-18T16:33:49.961Z,102202.28
2022-10-18T16:35:53.365Z,102198.75
2022-10-18T16:37:56.565Z,102196.97
2022-10-18T16:39:59.668Z,102212.75
2022-10-18T16:42:02.645Z,102210.97
2022-10-18T16:44:05.746Z,102213.41
2022-10-18T16:46:11.336Z,102216.91
2022-10-18T16:48:16.832Z,102216.91
2022-10-18T16:50:21.903Z,102213.28
2022-10-18T16:52:24.961Z,102215.88
2022-10-18T16:54:28.051Z,102195.31
2022-10-18T16:56:32.472Z,102215.69
2022-10-18T16:58:35.510Z,102225.31
2022-10-18T17:00:39.428Z,102222.69
2022-10-18T17:02:42.719Z,102218.13
2022-10-18T17:04:47.080Z,102225.91
2022-10-18T17:06:50.233Z,102227.63
2022-10-18T17:08:53.868Z,102234.53
2022-10-18T17:10:58.146Z,102229.94
2022-10-18T17:13:01.354Z,102240.38
2022-10-18T17:15:04.901Z,102240.34
2022-10-18T17:17:10.999Z,102241.03
2022-10-18T17:19:14.820Z,102250.66
2022-10-18T17:21:19.370Z,102245.31
2022-10-18T17:23:22.464Z,102246.91
2022-10-18T17:25:25.543Z,102244.16
2022-10-18T17:27:28.594Z,102245.88
2022-10-18T17:29:31.609Z,102247.63
2022-10-18T17:31:35.587Z,102244.84
2022-10-18T17:33:38.607Z,102254.44
2022-10-18T17:35:43.213Z,102249.91
2022-10-18T17:37:49.496Z,102258.56
2022-10-18T17:39:52.700Z,102260.16
2022-10-18T17:41:55.892Z,102258.31
2022-10-18T17:43:59.097Z,102254.38
2022-10-18T17:46:02.116Z,102258.94
2022-10-18T17:48:05.325Z,102257.59
2022-10-18T17:50:08.657Z,102263.84
2022-10-18T17:54:16.414Z,102261.22
2022-10-18T17:56:19.729Z,102267.28
2022-10-18T17:58:22.798Z,102276.88
2022-10-18T18:00:25.838Z,102269.72
2022-10-18T18:02:28.893Z,102218.94
2022-10-18T18:04:31.896Z,102267.88
2022-10-18T18:06:36.803Z,102270.28
2022-10-18T18:08:39.832Z,102271.94
2022-10-18T18:10:44.837Z,102273.59
2022-10-18T18:12:47.934Z,102275.25
2022-10-18T18:14:51.035Z,102265.59
2022-10-18T18:16:54.836Z,102273.41
2022-10-18T18:18:58.727Z,102278.69
2022-10-18T18:21:01.868Z,102282.81
2022-10-18T18:23:04.978Z,102283.47
2022-10-18T18:25:09.214Z,102273.78
2022-10-18T18:27:13.800Z,102272.75
2022-10-18T18:29:17.457Z,102274.56
2022-10-18T18:31:23.431Z,102268.31
2022-10-18T18:33:26.479Z,102274.34
2022-10-18T18:35:29.485Z,102281.34
2022-10-18T18:37:32.696Z,102283.00
2022-10-18T18:39:36.169Z,102283.50
2022-10-18T18:41:39.191Z,102278.16
2022-10-18T18:43:44.871Z,102271.06
2022-10-18T18:45:51.253Z,102283.94
2022-10-18T18:47:54.448Z,102280.47
2022-10-18T18:49:57.483Z,102273.38
2022-10-18T18:52:00.494Z,102282.94
2022-10-18T18:54:03.891Z,102278.31
2022-10-18T18:56:08.197Z,102284.06
2022-10-18T18:58:11.316Z,102277.94
2022-10-18T19:00:16.349Z,102287.22
2022-10-18T19:02:19.409Z,102282.56
2022-10-18T19:04:22.483Z,102280.03
2022-10-18T19:06:26.749Z,102280.94
2022-10-18T19:08:29.835Z,102275.66
2022-10-18T19:10:32.839Z,102279.13
2022-10-18T19:12:36.063Z,102277.22
2022-10-18T19:14:39.317Z,102279.72
2022-10-18T19:16:46.818Z,102274.31
2022-10-18T19:18:53.865Z,102265.63
2022-10-18T19:20:56.980Z,102278.75
2022-10-18T19:23:00.015Z,102264.41
2022-10-18T19:25:03.049Z,102271.41
2022-10-18T19:27:08.642Z,102267.72
2022-10-18T19:29:13.448Z,102267.72
2022-10-18T19:31:16.501Z,102264.28
2022-10-18T19:33:35.545Z,102267.56
2022-10-18T19:35:45.261Z,102271.91
2022-10-18T19:37:48.272Z,102270.13
2022-10-18T19:39:51.327Z,102276.34
2022-10-18T19:41:56.066Z,102268.25
2022-10-18T19:43:59.329Z,102274.28
2022-10-18T19:46:02.959Z,102278.53
2022-10-18T19:48:06.629Z,102272.06
2022-10-18T19:50:11.163Z,102276.41
2022-10-18T19:52:14.319Z,102272.81
2022-10-18T19:54:17.485Z,102275.13
2022-10-18T19:56:21.580Z,102272.59
2022-10-18T19:58:24.640Z,102282.13
2022-10-18T20:00:27.943Z,102281.47
2022-10-18T20:02:31.352Z,102282.31
2022-10-18T20:04:37.337Z,102277.88
2022-10-18T20:06:42.134Z,102276.84
2022-10-18T20:08:45.385Z,102278.34
2022-10-18T20:10:48.464Z,102272.25
2022-10-18T20:12:51.523Z,102275.66
2022-10-18T20:14:54.655Z,102280.88
2022-10-18T20:16:57.752Z,102275.53
2022-10-18T20:19:01.884Z,102283.31
2022-10-18T20:21:05.597Z,102282.56
2022-10-18T20:23:09.978Z,102273.56
2022-10-18T20:25:13.180Z,102281.06
2022-10-18T20:27:16.305Z,102288.59
2022-10-18T20:29:19.930Z,102275.38
2022-10-18T20:31:23.670Z,102284.19
2022-10-18T20:33:26.695Z,102278.00
2022-10-18T20:35:29.727Z,102279.66
2022-10-18T20:37:32.983Z,102283.28
2022-10-18T20:39:37.903Z,102279.75
2022-10-18T20:41:41.684Z,102278.53
2022-10-18T20:43:45.302Z,102286.91
2022-10-18T20:45:56.356Z,102288.41
2022-10-18T20:47:59.405Z,102291.25
2022-10-18T20:50:02.509Z,102294.81
2022-10-18T20:52:05.492Z,102296.88
2022-10-18T20:54:09.435Z,102289.66
2022-10-18T20:56:14.946Z,102291.56
2022-10-18T20:58:17.972Z,102290.97
2022-10-18T21:00:21.066Z,102299.94
2022-10-18T21:02:24.045Z,102291.59
2022-10-18T21:04:27.077Z,102296.91
2022-10-18T21:06:33.708Z,102291.03
2022-10-18T21:08:36.782Z,102286.28
2022-10-18T21:10:39.803Z,102287.19
2022-10-18T21:12:44.199Z,102289.81
2022-10-18T21:14:49.972Z,102285.34
2022-10-18T21:16:53.268Z,102284.38
2022-10-18T21:18:56.555Z,102279.06
2022-10-18T21:21:07.561Z,102282.53
2022-10-18T21:23:10.645Z,102281.50
2022-10-18T21:25:13.773Z,102275.44
2022-10-18T21:27:16.832Z,102277.03
2022-10-18T21:29:22.786Z,102284.91
2022-10-18T21:31:26.608Z,102280.63
2022-10-18T21:33:29.785Z,102277.94
2022-10-18T21:35:35.631Z,102282.34
2022-10-18T21:37:38.641Z,102275.56
2022-10-18T21:39:42.260Z,102281.50
2022-10-18T21:41:45.583Z,102286.81
2022-10-18T21:43:49.443Z,102274.81
2022-10-18T21:45:59.055Z,102284.16
2022-10-18T21:48:03.529Z,102280.06
2022-10-18T21:50:06.838Z,102278.53
2022-10-18T21:52:09.832Z,102267.34
2022-10-18T21:54:13.924Z,102268.09
2022-10-18T21:56:18.164Z,102271.19
2022-10-18T21:58:21.212Z,102267.75
2022-10-18T22:00:24.205Z,102271.41
2022-10-18T22:02:28.584Z,102276.66
2022-10-18T22:04:35.631Z,102275.47
2022-10-18T22:06:38.933Z,102269.25
2022-10-18T22:08:42.373Z,102269.25
2022-10-18T22:10:45.435Z,102265.72
2022-10-18T22:12:48.520Z,102268.31
2022-10-18T22:14:51.566Z,102275.06
2022-10-18T22:16:54.667Z,102275.06
2022-10-18T22:19:00.231Z,102270.59
2022-10-18T22:21:04.751Z,102278.28
2022-10-18T22:23:12.522Z,102268.44
2022-10-18T22:25:15.875Z,102276.00
2022-10-18T22:27:18.983Z,102270.09
2022-10-18T22:29:22.349Z,102260.53
2022-10-18T22:31:26.412Z,102263.72
2022-10-18T22:33:29.857Z,102258.22
2022-10-18T22:35:34.617Z,102262.44
2022-10-18T22:37:37.668Z,102264.34
2022-10-18T22:39:40.663Z,102256.25
2022-10-18T22:41:44.142Z,102260.44
2022-10-18T22:43:47.671Z,102268.94
2022-10-18T22:45:50.722Z,102267.16
2022-10-18T22:47:53.830Z,102274.25
2022-10-18T22:49:56.868Z,102264.56
2022-10-18T22:52:01.237Z,102263.88
2022-10-18T22:54:04.636Z,102263.13
2022-10-18T22:56:08.603Z,102266.13
2022-10-18T22:58:11.605Z,102259.56
2022-10-18T23:00:15.183Z,102262.81
2022-10-18T23:02:20.111Z,102204.78
2022-10-18T23:04:23.171Z,102264.56
2022-10-18T23:06:27.700Z,102258.91
2022-10-18T23:08:32.852Z,102253.66
2022-10-18T23:10:37.526Z,102256.19
2022-10-18T23:12:40.562Z,102258.03
2022-10-18T23:14:44.577Z,102253.53
2022-10-18T23:16:47.664Z,102248.44
2022-10-18T23:18:54.450Z,102252.56
2022-10-18T23:21:01.333Z,102261.84
2022-10-18T23:23:04.334Z,102250.34
2022-10-18T23:25:09.341Z,102253.94
2022-10-18T23:27:15.078Z,102259.22
2022-10-18T23:29:18.320Z,102262.84
2022-10-18T23:31:22.545Z,102266.94
2022-10-18T23:33:25.579Z,102258.81
2022-10-18T23:35:28.811Z,102263.66
2022-10-18T23:37:32.329Z,102260.78
2022-10-18T23:39:35.531Z,102265.16
2022-10-18T23:41:39.918Z,102266.03
2022-10-18T23:43:43.315Z,102268.44
2022-10-18T23:47:54.294Z,102265.13
2022-10-18T23:49:58.855Z,102273.69
2022-10-18T23:52:01.907Z,102267.75
2022-10-18T23:54:04.990Z,102265.84
2022-10-18T23:56:09.290Z,102268.84
2022-10-18T23:58:13.725Z,102266.47
